sensor_id;sensor_type;location;lat;lon;timestamp;P1;durP1;ratioP1;P2;durP2;ratioP2
38399;SDS011;24180;42.676;23.320;2023-06-05T00:00:45;16.07;;;14.47;;
38399;SDS011;24180;42.676;23.320;2023-06-05T00:03:11;16.20;;;14.50;;
38399;SDS011;24180;42.676;23.320;2023-06-05T00:05:36;16.37;;;14.67;;
38399;SDS011;24180;42.676;23.320;2023-06-05T00:08:02;15.03;;;13.67;;
38399;SDS011;24180;42.676;23.320;2023-06-05T00:10:27;14.70;;;13.23;;
38399;SDS011;24180;42.676;23.320;2023-06-05T00:12:52;15.43;;;13.93;;
38399;SDS011;24180;42.676;23.320;2023-06-05T00:15:18;15.70;;;13.97;;
38399;SDS011;24180;42.676;23.320;2023-06-05T00:17:43;15.00;;;13.30;;
38399;SDS011;24180;42.676;23.320;2023-06-05T00:20:10;15.33;;;13.73;;
38399;SDS011;24180;42.676;23.320;2023-06-05T00:22:36;16.60;;;14.13;;
38399;SDS011;24180;42.676;23.320;2023-06-05T00:25:03;16.33;;;14.83;;
38399;SDS011;24180;42.676;23.320;2023-06-05T00:27:29;17.67;;;13.63;;
38399;SDS011;24180;42.676;23.320;2023-06-05T00:29:55;16.20;;;14.70;;
38399;SDS011;24180;42.676;23.320;2023-06-05T00:32:21;16.87;;;15.27;;
38399;SDS011;24180;42.676;23.320;2023-06-05T00:34:46;17.97;;;15.33;;
38399;SDS011;24180;42.676;23.320;2023-06-05T00:37:15;18.90;;;15.30;;
38399;SDS011;24180;42.676;23.320;2023-06-05T00:39:41;16.53;;;14.83;;
38399;SDS011;24180;42.676;23.320;2023-06-05T00:42:09;16.27;;;14.67;;
38399;SDS011;24180;42.676;23.320;2023-06-05T00:44:35;15.97;;;14.57;;
38399;SDS011;24180;42.676;23.320;2023-06-05T00:47:00;17.50;;;15.57;;
38399;SDS011;24180;42.676;23.320;2023-06-05T00:49:28;16.67;;;15.07;;
38399;SDS011;24180;42.676;23.320;2023-06-05T00:51:53;19.03;;;15.77;;
38399;SDS011;24180;42.676;23.320;2023-06-05T00:54:19;22.60;;;15.77;;
38399;SDS011;24180;42.676;23.320;2023-06-05T00:56:46;15.13;;;13.73;;
38399;SDS011;24180;42.676;23.320;2023-06-05T00:59:11;17.03;;;13.90;;
38399;SDS011;24180;42.676;23.320;2023-06-05T01:01:39;16.97;;;14.80;;
38399;SDS011;24180;42.676;23.320;2023-06-05T01:04:05;15.17;;;13.80;;
38399;SDS011;24180;42.676;23.320;2023-06-05T01:06:31;14.07;;;12.83;;
38399;SDS011;24180;42.676;23.320;2023-06-05T01:08:59;13.93;;;12.47;;
38399;SDS011;24180;42.676;23.320;2023-06-05T01:13:54;13.77;;;12.47;;
38399;SDS011;24180;42.676;23.320;2023-06-05T01:16:27;13.07;;;11.77;;
38399;SDS011;24180;42.676;23.320;2023-06-05T01:18:56;13.10;;;12.00;;
38399;SDS011;24180;42.676;23.320;2023-06-05T01:21:27;13.70;;;12.43;;
38399;SDS011;24180;42.676;23.320;2023-06-05T01:23:54;14.07;;;12.60;;
38399;SDS011;24180;42.676;23.320;2023-06-05T01:26:20;14.00;;;12.50;;
38399;SDS011;24180;42.676;23.320;2023-06-05T01:29:06;13.60;;;12.33;;
38399;SDS011;24180;42.676;23.320;2023-06-05T01:31:37;14.50;;;13.10;;
38399;SDS011;24180;42.676;23.320;2023-06-05T01:34:05;14.53;;;12.80;;
38399;SDS011;24180;42.676;23.320;2023-06-05T01:36:36;15.37;;;13.97;;
38399;SDS011;24180;42.676;23.320;2023-06-05T01:39:03;15.50;;;14.00;;
38399;SDS011;24180;42.676;23.320;2023-06-05T01:41:29;15.53;;;13.90;;
38399;SDS011;24180;42.676;23.320;2023-06-05T01:43:55;16.20;;;13.13;;
38399;SDS011;24180;42.676;23.320;2023-06-05T01:46:22;15.33;;;13.87;;
38399;SDS011;24180;42.676;23.320;2023-06-05T01:48:49;15.80;;;14.20;;
38399;SDS011;24180;42.676;23.320;2023-06-05T01:51:16;16.43;;;14.87;;
38399;SDS011;24180;42.676;23.320;2023-06-05T01:53:41;16.53;;;14.90;;
38399;SDS011;24180;42.676;23.320;2023-06-05T01:56:07;15.87;;;14.30;;
38399;SDS011;24180;42.676;23.320;2023-06-05T01:58:33;14.53;;;13.13;;
38399;SDS011;24180;42.676;23.320;2023-06-05T02:01:00;14.73;;;13.13;;
38399;SDS011;24180;42.676;23.320;2023-06-05T02:03:26;17.63;;;13.70;;
38399;SDS011;24180;42.676;23.320;2023-06-05T02:05:52;14.10;;;12.90;;
38399;SDS011;24180;42.676;23.320;2023-06-05T02:08:17;14.97;;;13.37;;
38399;SDS011;24180;42.676;23.320;2023-06-05T02:10:50;15.10;;;13.70;;
38399;SDS011;24180;42.676;23.320;2023-06-05T02:13:17;16.10;;;14.50;;
38399;SDS011;24180;42.676;23.320;2023-06-05T02:15:48;15.13;;;13.77;;
38399;SDS011;24180;42.676;23.320;2023-06-05T02:18:15;15.43;;;13.80;;
38399;SDS011;24180;42.676;23.320;2023-06-05T02:20:42;14.53;;;13.30;;
38399;SDS011;24180;42.676;23.320;2023-06-05T02:23:07;14.93;;;13.43;;
38399;SDS011;24180;42.676;23.320;2023-06-05T02:25:33;15.17;;;13.57;;
38399;SDS011;24180;42.676;23.320;2023-06-05T02:27:58;19.13;;;13.17;;
38399;SDS011;24180;42.676;23.320;2023-06-05T02:30:24;15.27;;;13.73;;
38399;SDS011;24180;42.676;23.320;2023-06-05T02:32:50;15.63;;;14.10;;
38399;SDS011;24180;42.676;23.320;2023-06-05T02:35:21;15.50;;;14.00;;
38399;SDS011;24180;42.676;23.320;2023-06-05T02:37:48;15.30;;;13.70;;
38399;SDS011;24180;42.676;23.320;2023-06-05T02:40:14;15.70;;;14.03;;
38399;SDS011;24180;42.676;23.320;2023-06-05T02:42:39;15.73;;;14.33;;
38399;SDS011;24180;42.676;23.320;2023-06-05T02:45:06;16.27;;;14.67;;
38399;SDS011;24180;42.676;23.320;2023-06-05T02:47:33;17.17;;;14.97;;
38399;SDS011;24180;42.676;23.320;2023-06-05T02:49:59;15.73;;;14.23;;
38399;SDS011;24180;42.676;23.320;2023-06-05T02:52:25;19.73;;;14.00;;
38399;SDS011;24180;42.676;23.320;2023-06-05T02:54:51;15.07;;;13.70;;
38399;SDS011;24180;42.676;23.320;2023-06-05T02:57:16;19.30;;;13.80;;
38399;SDS011;24180;42.676;23.320;2023-06-05T02:59:43;15.30;;;13.73;;
38399;SDS011;24180;42.676;23.320;2023-06-05T03:02:08;16.97;;;14.83;;
38399;SDS011;24180;42.676;23.320;2023-06-05T03:04:35;16.97;;;15.17;;
38399;SDS011;24180;42.676;23.320;2023-06-05T03:07:01;18.37;;;15.50;;
38399;SDS011;24180;42.676;23.320;2023-06-05T03:09:29;18.37;;;15.77;;
38399;SDS011;24180;42.676;23.320;2023-06-05T03:11:57;17.17;;;14.77;;
38399;SDS011;24180;42.676;23.320;2023-06-05T03:14:23;17.13;;;15.37;;
38399;SDS011;24180;42.676;23.320;2023-06-05T03:16:49;16.93;;;15.27;;
38399;SDS011;24180;42.676;23.320;2023-06-05T03:19:15;17.53;;;15.73;;
38399;SDS011;24180;42.676;23.320;2023-06-05T03:21:41;16.53;;;14.70;;
38399;SDS011;24180;42.676;23.320;2023-06-05T03:24:08;18.03;;;15.43;;
38399;SDS011;24180;42.676;23.320;2023-06-05T03:26:35;17.17;;;15.47;;
38399;SDS011;24180;42.676;23.320;2023-06-05T03:29:01;16.67;;;14.23;;
38399;SDS011;24180;42.676;23.320;2023-06-05T03:31:27;15.70;;;14.17;;
38399;SDS011;24180;42.676;23.320;2023-06-05T03:33:52;16.57;;;14.97;;
38399;SDS011;24180;42.676;23.320;2023-06-05T03:36:18;18.57;;;15.70;;
38399;SDS011;24180;42.676;23.320;2023-06-05T03:38:44;16.97;;;15.30;;
38399;SDS011;24180;42.676;23.320;2023-06-05T03:41:09;17.57;;;15.80;;
38399;SDS011;24180;42.676;23.320;2023-06-05T03:43:35;48.57;;;16.93;;
38399;SDS011;24180;42.676;23.320;2023-06-05T03:46:01;20.23;;;16.57;;
38399;SDS011;24180;42.676;23.320;2023-06-05T03:48:27;17.83;;;15.53;;
38399;SDS011;24180;42.676;23.320;2023-06-05T03:50:52;17.63;;;15.80;;
38399;SDS011;24180;42.676;23.320;2023-06-05T03:53:18;19.27;;;16.67;;
38399;SDS011;24180;42.676;23.320;2023-06-05T03:55:44;19.47;;;17.67;;
38399;SDS011;24180;42.676;23.320;2023-06-05T03:58:12;21.20;;;17.47;;
38399;SDS011;24180;42.676;23.320;2023-06-05T04:00:39;19.50;;;17.60;;
38399;SDS011;24180;42.676;23.320;2023-06-05T04:03:09;20.53;;;18.17;;
38399;SDS011;24180;42.676;23.320;2023-06-05T04:05:36;23.00;;;18.63;;
38399;SDS011;24180;42.676;23.320;2023-06-05T04:08:02;24.13;;;19.53;;
38399;SDS011;24180;42.676;23.320;2023-06-05T04:10:28;21.67;;;19.43;;
38399;SDS011;24180;42.676;23.320;2023-06-05T04:12:54;21.23;;;18.83;;
38399;SDS011;24180;42.676;23.320;2023-06-05T04:15:20;22.57;;;19.77;;
38399;SDS011;24180;42.676;23.320;2023-06-05T04:17:45;24.13;;;19.87;;
38399;SDS011;24180;42.676;23.320;2023-06-05T04:20:11;21.93;;;19.37;;
38399;SDS011;24180;42.676;23.320;2023-06-05T04:22:39;22.80;;;20.50;;
38399;SDS011;24180;42.676;23.320;2023-06-05T04:25:05;21.57;;;19.17;;
38399;SDS011;24180;42.676;23.320;2023-06-05T04:27:31;21.50;;;19.30;;
38399;SDS011;24180;42.676;23.320;2023-06-05T04:29:56;22.87;;;19.60;;
38399;SDS011;24180;42.676;23.320;2023-06-05T04:32:22;21.80;;;18.53;;
38399;SDS011;24180;42.676;23.320;2023-06-05T04:34:47;22.37;;;19.43;;
38399;SDS011;24180;42.676;23.320;2023-06-05T04:37:13;23.10;;;20.87;;
38399;SDS011;24180;42.676;23.320;2023-06-05T04:39:38;24.87;;;21.27;;
38399;SDS011;24180;42.676;23.320;2023-06-05T04:42:04;24.40;;;21.57;;
38399;SDS011;24180;42.676;23.320;2023-06-05T04:44:30;25.57;;;20.80;;
38399;SDS011;24180;42.676;23.320;2023-06-05T04:46:56;29.33;;;22.07;;
38399;SDS011;24180;42.676;23.320;2023-06-05T04:49:22;26.77;;;22.50;;
38399;SDS011;24180;42.676;23.320;2023-06-05T04:51:51;22.93;;;20.57;;
38399;SDS011;24180;42.676;23.320;2023-06-05T04:54:18;23.47;;;21.13;;
38399;SDS011;24180;42.676;23.320;2023-06-05T04:56:44;23.03;;;20.57;;
38399;SDS011;24180;42.676;23.320;2023-06-05T04:59:10;25.77;;;21.63;;
38399;SDS011;24180;42.676;23.320;2023-06-05T05:01:36;24.27;;;21.43;;
38399;SDS011;24180;42.676;23.320;2023-06-05T05:04:01;23.53;;;21.03;;
38399;SDS011;24180;42.676;23.320;2023-06-05T05:06:27;25.50;;;22.10;;
38399;SDS011;24180;42.676;23.320;2023-06-05T05:08:53;24.73;;;20.97;;
38399;SDS011;24180;42.676;23.320;2023-06-05T05:11:19;21.67;;;19.37;;
38399;SDS011;24180;42.676;23.320;2023-06-05T05:13:45;23.20;;;20.63;;
38399;SDS011;24180;42.676;23.320;2023-06-05T05:16:11;22.90;;;20.60;;
38399;SDS011;24180;42.676;23.320;2023-06-05T05:18:38;22.17;;;19.97;;
38399;SDS011;24180;42.676;23.320;2023-06-05T05:21:05;22.40;;;20.07;;
38399;SDS011;24180;42.676;23.320;2023-06-05T05:23:31;24.10;;;19.47;;
38399;SDS011;24180;42.676;23.320;2023-06-05T05:25:57;20.43;;;18.47;;
38399;SDS011;24180;42.676;23.320;2023-06-05T05:28:22;20.30;;;18.13;;
38399;SDS011;24180;42.676;23.320;2023-06-05T05:30:48;30.17;;;19.30;;
38399;SDS011;24180;42.676;23.320;2023-06-05T05:33:13;24.93;;;18.90;;
38399;SDS011;24180;42.676;23.320;2023-06-05T05:35:40;20.13;;;18.10;;
38399;SDS011;24180;42.676;23.320;2023-06-05T05:38:06;21.57;;;19.27;;
38399;SDS011;24180;42.676;23.320;2023-06-05T05:40:31;19.43;;;17.50;;
38399;SDS011;24180;42.676;23.320;2023-06-05T05:42:56;23.50;;;18.50;;
38399;SDS011;24180;42.676;23.320;2023-06-05T05:45:22;21.00;;;19.03;;
38399;SDS011;24180;42.676;23.320;2023-06-05T05:47:47;23.27;;;20.13;;
38399;SDS011;24180;42.676;23.320;2023-06-05T05:50:13;22.57;;;18.30;;
38399;SDS011;24180;42.676;23.320;2023-06-05T05:52:38;22.60;;;20.23;;
38399;SDS011;24180;42.676;23.320;2023-06-05T05:55:04;29.50;;;16.83;;
38399;SDS011;24180;42.676;23.320;2023-06-05T05:57:30;21.30;;;15.93;;
38399;SDS011;24180;42.676;23.320;2023-06-05T05:59:55;22.57;;;17.53;;
38399;SDS011;24180;42.676;23.320;2023-06-05T06:02:21;21.73;;;18.00;;
38399;SDS011;24180;42.676;23.320;2023-06-05T06:04:46;19.63;;;17.50;;
38399;SDS011;24180;42.676;23.320;2023-06-05T06:07:12;19.93;;;18.07;;
38399;SDS011;24180;42.676;23.320;2023-06-05T06:09:38;24.73;;;17.50;;
38399;SDS011;24180;42.676;23.320;2023-06-05T06:12:04;21.40;;;18.70;;
38399;SDS011;24180;42.676;23.320;2023-06-05T06:14:32;19.83;;;17.93;;
38399;SDS011;24180;42.676;23.320;2023-06-05T06:17:01;23.37;;;17.47;;
38399;SDS011;24180;42.676;23.320;2023-06-05T06:19:27;19.87;;;16.60;;
38399;SDS011;24180;42.676;23.320;2023-06-05T06:21:54;19.60;;;17.63;;
38399;SDS011;24180;42.676;23.320;2023-06-05T06:24:20;19.37;;;17.50;;
38399;SDS011;24180;42.676;23.320;2023-06-05T06:26:46;19.93;;;17.77;;
38399;SDS011;24180;42.676;23.320;2023-06-05T06:29:24;16.73;;;15.17;;
38399;SDS011;24180;42.676;23.320;2023-06-05T06:31:50;16.20;;;14.60;;
38399;SDS011;24180;42.676;23.320;2023-06-05T06:34:16;26.37;;;16.90;;
38399;SDS011;24180;42.676;23.320;2023-06-05T06:36:41;22.67;;;15.33;;
38399;SDS011;24180;42.676;23.320;2023-06-05T06:39:09;97.03;;;21.67;;
38399;SDS011;24180;42.676;23.320;2023-06-05T06:41:35;105.63;;;21.53;;
38399;SDS011;24180;42.676;23.320;2023-06-05T06:44:02;36.67;;;25.20;;
38399;SDS011;24180;42.676;23.320;2023-06-05T06:46:27;34.58;;;18.15;;
38399;SDS011;24180;42.676;23.320;2023-06-05T06:48:53;17.47;;;15.23;;
38399;SDS011;24180;42.676;23.320;2023-06-05T06:51:18;87.97;;;22.73;;
38399;SDS011;24180;42.676;23.320;2023-06-05T06:53:43;53.03;;;17.90;;
38399;SDS011;24180;42.676;23.320;2023-06-05T06:56:09;31.40;;;17.33;;
38399;SDS011;24180;42.676;23.320;2023-06-05T06:58:35;19.30;;;15.75;;
38399;SDS011;24180;42.676;23.320;2023-06-05T07:01:01;23.38;;;17.30;;
38399;SDS011;24180;42.676;23.320;2023-06-05T07:03:27;24.30;;;18.10;;
38399;SDS011;24180;42.676;23.320;2023-06-05T07:05:53;24.60;;;18.15;;
38399;SDS011;24180;42.676;23.320;2023-06-05T07:08:18;33.80;;;19.98;;
38399;SDS011;24180;42.676;23.320;2023-06-05T07:10:44;16.42;;;14.82;;
38399;SDS011;24180;42.676;23.320;2023-06-05T07:13:09;49.20;;;20.05;;
38399;SDS011;24180;42.676;23.320;2023-06-05T07:15:34;18.60;;;16.40;;
38399;SDS011;24180;42.676;23.320;2023-06-05T07:18:00;21.55;;;19.60;;
38399;SDS011;24180;42.676;23.320;2023-06-05T07:20:26;27.73;;;25.38;;
38399;SDS011;24180;42.676;23.320;2023-06-05T07:22:51;24.50;;;22.27;;
38399;SDS011;24180;42.676;23.320;2023-06-05T07:25:17;24.05;;;21.98;;
38399;SDS011;24180;42.676;23.320;2023-06-05T07:27:45;24.30;;;22.02;;
38399;SDS011;24180;42.676;23.320;2023-06-05T07:30:10;21.48;;;19.58;;
38399;SDS011;24180;42.676;23.320;2023-06-05T07:32:38;21.88;;;18.27;;
38399;SDS011;24180;42.676;23.320;2023-06-05T07:35:03;19.15;;;17.25;;
38399;SDS011;24180;42.676;23.320;2023-06-05T07:37:29;46.83;;;19.70;;
38399;SDS011;24180;42.676;23.320;2023-06-05T07:39:54;22.40;;;18.13;;
38399;SDS011;24180;42.676;23.320;2023-06-05T07:42:20;18.52;;;16.17;;
38399;SDS011;24180;42.676;23.320;2023-06-05T07:44:45;24.92;;;17.75;;
38399;SDS011;24180;42.676;23.320;2023-06-05T07:47:10;23.15;;;17.40;;
38399;SDS011;24180;42.676;23.320;2023-06-05T07:49:36;19.92;;;15.82;;
38399;SDS011;24180;42.676;23.320;2023-06-05T07:52:01;18.90;;;17.05;;
38399;SDS011;24180;42.676;23.320;2023-06-05T07:54:27;19.33;;;17.23;;
38399;SDS011;24180;42.676;23.320;2023-06-05T07:56:52;20.58;;;18.58;;
38399;SDS011;24180;42.676;23.320;2023-06-05T07:59:19;18.13;;;16.25;;
38399;SDS011;24180;42.676;23.320;2023-06-05T08:01:50;21.88;;;19.98;;
38399;SDS011;24180;42.676;23.320;2023-06-05T08:04:16;16.98;;;15.10;;
38399;SDS011;24180;42.676;23.320;2023-06-05T08:06:42;18.98;;;16.27;;
38399;SDS011;24180;42.676;23.320;2023-06-05T08:09:08;19.00;;;17.02;;
38399;SDS011;24180;42.676;23.320;2023-06-05T08:11:37;18.77;;;16.67;;
38399;SDS011;24180;42.676;23.320;2023-06-05T08:14:04;18.70;;;16.65;;
38399;SDS011;24180;42.676;23.320;2023-06-05T08:16:31;16.08;;;14.65;;
38399;SDS011;24180;42.676;23.320;2023-06-05T08:18:57;17.55;;;15.35;;
38399;SDS011;24180;42.676;23.320;2023-06-05T08:21:22;17.00;;;13.75;;
38399;SDS011;24180;42.676;23.320;2023-06-05T08:23:49;16.15;;;14.48;;
38399;SDS011;24180;42.676;23.320;2023-06-05T08:26:14;15.88;;;14.30;;
38399;SDS011;24180;42.676;23.320;2023-06-05T08:28:40;16.98;;;15.32;;
38399;SDS011;24180;42.676;23.320;2023-06-05T08:31:09;16.88;;;14.80;;
38399;SDS011;24180;42.676;23.320;2023-06-05T08:33:35;16.67;;;14.98;;
38399;SDS011;24180;42.676;23.320;2023-06-05T08:36:02;19.27;;;16.88;;
38399;SDS011;24180;42.676;23.320;2023-06-05T08:38:29;16.77;;;15.10;;
38399;SDS011;24180;42.676;23.320;2023-06-05T08:41:02;16.40;;;14.90;;
38399;SDS011;24180;42.676;23.320;2023-06-05T08:43:30;18.75;;;16.05;;
38399;SDS011;24180;42.676;23.320;2023-06-05T08:45:56;18.02;;;16.33;;
38399;SDS011;24180;42.676;23.320;2023-06-05T08:48:24;17.05;;;15.30;;
38399;SDS011;24180;42.676;23.320;2023-06-05T08:50:51;15.02;;;13.48;;
38399;SDS011;24180;42.676;23.320;2023-06-05T08:53:17;16.17;;;14.60;;
38399;SDS011;24180;42.676;23.320;2023-06-05T08:55:45;15.88;;;14.20;;
38399;SDS011;24180;42.676;23.320;2023-06-05T08:58:12;22.08;;;15.23;;
38399;SDS011;24180;42.676;23.320;2023-06-05T09:00:39;17.65;;;15.95;;
38399;SDS011;24180;42.676;23.320;2023-06-05T09:03:05;16.35;;;14.82;;
38399;SDS011;24180;42.676;23.320;2023-06-05T09:05:31;17.60;;;15.73;;
38399;SDS011;24180;42.676;23.320;2023-06-05T09:07:57;16.67;;;15.07;;
38399;SDS011;24180;42.676;23.320;2023-06-05T09:10:24;14.68;;;13.38;;
38399;SDS011;24180;42.676;23.320;2023-06-05T09:13:01;16.48;;;14.88;;
38399;SDS011;24180;42.676;23.320;2023-06-05T09:15:29;16.25;;;14.68;;
38399;SDS011;24180;42.676;23.320;2023-06-05T09:18:11;15.60;;;14.20;;
38399;SDS011;24180;42.676;23.320;2023-06-05T09:20:42;17.67;;;16.00;;
38399;SDS011;24180;42.676;23.320;2023-06-05T09:23:31;16.10;;;14.65;;
38399;SDS011;24180;42.676;23.320;2023-06-05T09:25:57;16.73;;;15.20;;
38399;SDS011;24180;42.676;23.320;2023-06-05T09:28:24;17.48;;;15.93;;
38399;SDS011;24180;42.676;23.320;2023-06-05T09:30:56;20.55;;;18.63;;
38399;SDS011;24180;42.676;23.320;2023-06-05T09:33:27;21.38;;;19.55;;
38399;SDS011;24180;42.676;23.320;2023-06-05T09:36:03;18.40;;;16.60;;
38399;SDS011;24180;42.676;23.320;2023-06-05T09:38:30;15.98;;;14.48;;
38399;SDS011;24180;42.676;23.320;2023-06-05T09:41:12;19.80;;;15.48;;
38399;SDS011;24180;42.676;23.320;2023-06-05T09:43:45;29.45;;;13.90;;
38399;SDS011;24180;42.676;23.320;2023-06-05T09:46:11;78.25;;;20.33;;
38399;SDS011;24180;42.676;23.320;2023-06-05T09:48:38;36.60;;;14.70;;
38399;SDS011;24180;42.676;23.320;2023-06-05T09:51:14;13.57;;;12.18;;
38399;SDS011;24180;42.676;23.320;2023-06-05T09:53:41;13.98;;;10.88;;
38399;SDS011;24180;42.676;23.320;2023-06-05T09:56:11;18.02;;;12.65;;
38399;SDS011;24180;42.676;23.320;2023-06-05T09:58:38;13.40;;;11.20;;
38399;SDS011;24180;42.676;23.320;2023-06-05T10:01:08;12.13;;;10.90;;
38399;SDS011;24180;42.676;23.320;2023-06-05T10:03:36;11.30;;;10.30;;
38399;SDS011;24180;42.676;23.320;2023-06-05T10:06:03;14.70;;;12.82;;
38399;SDS011;24180;42.676;23.320;2023-06-05T10:08:30;14.48;;;12.43;;
38399;SDS011;24180;42.676;23.320;2023-06-05T10:10:56;16.23;;;12.98;;
38399;SDS011;24180;42.676;23.320;2023-06-05T10:13:22;21.05;;;13.40;;
38399;SDS011;24180;42.676;23.320;2023-06-05T10:15:48;12.23;;;11.02;;
38399;SDS011;24180;42.676;23.320;2023-06-05T10:18:18;15.60;;;13.10;;
38399;SDS011;24180;42.676;23.320;2023-06-05T10:20:44;11.80;;;10.70;;
38399;SDS011;24180;42.676;23.320;2023-06-05T10:23:12;14.70;;;12.38;;
38399;SDS011;24180;42.676;23.320;2023-06-05T10:25:42;14.48;;;11.35;;
38399;SDS011;24180;42.676;23.320;2023-06-05T10:30:59;13.27;;;11.93;;
38399;SDS011;24180;42.676;23.320;2023-06-05T10:34:01;15.35;;;12.10;;
38399;SDS011;24180;42.676;23.320;2023-06-05T10:38:57;17.13;;;15.45;;
38399;SDS011;24180;42.676;23.320;2023-06-05T10:41:25;14.32;;;12.93;;
38399;SDS011;24180;42.676;23.320;2023-06-05T10:43:53;13.48;;;11.82;;
38399;SDS011;24180;42.676;23.320;2023-06-05T10:51:41;13.98;;;12.55;;
38399;SDS011;24180;42.676;23.320;2023-06-05T10:56:52;17.88;;;12.40;;
38399;SDS011;24180;42.676;23.320;2023-06-05T11:07:21;12.82;;;10.95;;
38399;SDS011;24180;42.676;23.320;2023-06-05T11:15:11;11.70;;;10.70;;
38399;SDS011;24180;42.676;23.320;2023-06-05T11:20:52;9.98;;;9.07;;
38399;SDS011;24180;42.676;23.320;2023-06-05T11:27:44;9.23;;;8.45;;
38399;SDS011;24180;42.676;23.320;2023-06-05T11:30:16;9.50;;;8.70;;
38399;SDS011;24180;42.676;23.320;2023-06-05T11:32:45;11.57;;;10.38;;
38399;SDS011;24180;42.676;23.320;2023-06-05T11:35:11;10.10;;;9.13;;
38399;SDS011;24180;42.676;23.320;2023-06-05T11:37:37;10.20;;;8.75;;
38399;SDS011;24180;42.676;23.320;2023-06-05T11:40:03;17.52;;;9.70;;
38399;SDS011;24180;42.676;23.320;2023-06-05T11:42:36;8.68;;;8.07;;
38399;SDS011;24180;42.676;23.320;2023-06-05T11:45:11;10.45;;;7.80;;
38399;SDS011;24180;42.676;23.320;2023-06-05T11:47:38;21.90;;;11.25;;
38399;SDS011;24180;42.676;23.320;2023-06-05T11:50:07;10.00;;;9.10;;
38399;SDS011;24180;42.676;23.320;2023-06-05T11:52:37;10.30;;;7.97;;
38399;SDS011;24180;42.676;23.320;2023-06-05T11:55:16;10.45;;;8.02;;
38399;SDS011;24180;42.676;23.320;2023-06-05T11:57:47;15.00;;;10.88;;
38399;SDS011;24180;42.676;23.320;2023-06-05T12:00:14;7.60;;;7.07;;
38399;SDS011;24180;42.676;23.320;2023-06-05T12:02:44;13.18;;;8.73;;
38399;SDS011;24180;42.676;23.320;2023-06-05T12:05:10;15.23;;;9.43;;
38399;SDS011;24180;42.676;23.320;2023-06-05T12:07:35;9.40;;;8.43;;
38399;SDS011;24180;42.676;23.320;2023-06-05T12:10:05;8.88;;;7.97;;
38399;SDS011;24180;42.676;23.320;2023-06-05T12:12:33;8.35;;;7.75;;
38399;SDS011;24180;42.676;23.320;2023-06-05T12:15:17;14.05;;;12.32;;
38399;SDS011;24180;42.676;23.320;2023-06-05T12:17:50;12.38;;;11.32;;
38399;SDS011;24180;42.676;23.320;2023-06-05T12:20:17;15.77;;;13.75;;
38399;SDS011;24180;42.676;23.320;2023-06-05T12:22:44;13.57;;;12.60;;
38399;SDS011;24180;42.676;23.320;2023-06-05T12:25:19;26.52;;;13.35;;
38399;SDS011;24180;42.676;23.320;2023-06-05T12:27:46;8.43;;;7.82;;
38399;SDS011;24180;42.676;23.320;2023-06-05T12:30:12;8.38;;;7.53;;
38399;SDS011;24180;42.676;23.320;2023-06-05T12:32:39;7.70;;;7.10;;
38399;SDS011;24180;42.676;23.320;2023-06-05T12:35:05;7.97;;;7.20;;
38399;SDS011;24180;42.676;23.320;2023-06-05T12:37:43;9.70;;;8.90;;
38399;SDS011;24180;42.676;23.320;2023-06-05T12:40:10;20.08;;;9.27;;
38399;SDS011;24180;42.676;23.320;2023-06-05T12:42:37;33.03;;;9.80;;
38399;SDS011;24180;42.676;23.320;2023-06-05T12:45:07;10.63;;;8.30;;
38399;SDS011;24180;42.676;23.320;2023-06-05T12:47:33;8.00;;;7.05;;
38399;SDS011;24180;42.676;23.320;2023-06-05T12:49:59;23.95;;;9.30;;
38399;SDS011;24180;42.676;23.320;2023-06-05T12:52:26;7.30;;;6.60;;
38399;SDS011;24180;42.676;23.320;2023-06-05T12:54:53;8.63;;;7.72;;
38399;SDS011;24180;42.676;23.320;2023-06-05T12:57:19;25.45;;;11.40;;
38399;SDS011;24180;42.676;23.320;2023-06-05T12:59:46;27.25;;;10.38;;
38399;SDS011;24180;42.676;23.320;2023-06-05T13:02:12;35.95;;;10.02;;
38399;SDS011;24180;42.676;23.320;2023-06-05T13:04:38;45.58;;;11.48;;
38399;SDS011;24180;42.676;23.320;2023-06-05T13:07:06;37.15;;;11.52;;
38399;SDS011;24180;42.676;23.320;2023-06-05T13:09:32;8.38;;;7.43;;
38399;SDS011;24180;42.676;23.320;2023-06-05T13:11:58;14.63;;;8.77;;
38399;SDS011;24180;42.676;23.320;2023-06-05T13:14:25;14.10;;;8.32;;
38399;SDS011;24180;42.676;23.320;2023-06-05T13:16:51;32.90;;;10.98;;
38399;SDS011;24180;42.676;23.320;2023-06-05T13:19:16;13.20;;;12.00;;
38399;SDS011;24180;42.676;23.320;2023-06-05T13:21:42;8.52;;;7.03;;
38399;SDS011;24180;42.676;23.320;2023-06-05T13:24:07;75.07;;;15.38;;
38399;SDS011;24180;42.676;23.320;2023-06-05T13:26:32;11.07;;;10.00;;
38399;SDS011;24180;42.676;23.320;2023-06-05T13:28:58;15.40;;;7.70;;
38399;SDS011;24180;42.676;23.320;2023-06-05T13:31:23;8.25;;;6.68;;
38399;SDS011;24180;42.676;23.320;2023-06-05T13:33:50;7.18;;;6.45;;
38399;SDS011;24180;42.676;23.320;2023-06-05T13:36:16;11.18;;;7.53;;
38399;SDS011;24180;42.676;23.320;2023-06-05T13:38:41;10.55;;;7.28;;
38399;SDS011;24180;42.676;23.320;2023-06-05T13:41:07;7.25;;;6.55;;
38399;SDS011;24180;42.676;23.320;2023-06-05T13:43:33;9.93;;;8.95;;
38399;SDS011;24180;42.676;23.320;2023-06-05T13:45:59;7.90;;;7.20;;
38399;SDS011;24180;42.676;23.320;2023-06-05T13:48:25;8.18;;;7.38;;
38399;SDS011;24180;42.676;23.320;2023-06-05T13:50:51;8.55;;;7.95;;
38399;SDS011;24180;42.676;23.320;2023-06-05T13:53:16;9.43;;;7.60;;
38399;SDS011;24180;42.676;23.320;2023-06-05T13:55:42;9.77;;;7.15;;
38399;SDS011;24180;42.676;23.320;2023-06-05T13:58:07;10.65;;;9.75;;
38399;SDS011;24180;42.676;23.320;2023-06-05T14:00:34;7.90;;;7.30;;
38399;SDS011;24180;42.676;23.320;2023-06-05T14:03:00;7.38;;;6.78;;
38399;SDS011;24180;42.676;23.320;2023-06-05T14:05:26;15.50;;;14.32;;
38399;SDS011;24180;42.676;23.320;2023-06-05T14:07:52;17.40;;;16.25;;
38399;SDS011;24180;42.676;23.320;2023-06-05T14:10:19;9.55;;;8.75;;
38399;SDS011;24180;42.676;23.320;2023-06-05T14:12:45;7.72;;;7.03;;
38399;SDS011;24180;42.676;23.320;2023-06-05T14:15:11;7.13;;;6.57;;
38399;SDS011;24180;42.676;23.320;2023-06-05T14:17:36;7.70;;;7.10;;
38399;SDS011;24180;42.676;23.320;2023-06-05T14:20:02;7.97;;;6.80;;
38399;SDS011;24180;42.676;23.320;2023-06-05T14:22:28;7.85;;;7.15;;
38399;SDS011;24180;42.676;23.320;2023-06-05T14:24:53;7.57;;;6.97;;
38399;SDS011;24180;42.676;23.320;2023-06-05T14:27:19;11.55;;;7.35;;
38399;SDS011;24180;42.676;23.320;2023-06-05T14:29:44;7.72;;;7.15;;
38399;SDS011;24180;42.676;23.320;2023-06-05T14:32:10;7.88;;;7.25;;
38399;SDS011;24180;42.676;23.320;2023-06-05T14:34:35;7.50;;;6.90;;
38399;SDS011;24180;42.676;23.320;2023-06-05T14:37:01;8.73;;;7.30;;
38399;SDS011;24180;42.676;23.320;2023-06-05T14:39:27;8.40;;;7.70;;
38399;SDS011;24180;42.676;23.320;2023-06-05T14:41:52;8.35;;;7.65;;
38399;SDS011;24180;42.676;23.320;2023-06-05T14:44:18;12.40;;;11.45;;
38399;SDS011;24180;42.676;23.320;2023-06-05T14:46:43;8.68;;;8.05;;
38399;SDS011;24180;42.676;23.320;2023-06-05T14:49:10;8.68;;;7.88;;